createdAt,value
2017-06-11T00:00:17.105Z,40.4
2017-06-11T00:01:17.790Z,40.3
2017-06-11T00:02:18.755Z,40.3
2017-06-11T00:03:19.890Z,40.5
2017-06-11T00:04:20.657Z,40.3
2017-06-11T00:05:21.423Z,40.4
2017-06-11T00:06:22.134Z,40.3
2017-06-11T00:07:22.869Z,40.3
2017-06-11T00:08:23.627Z,40.5
2017-06-11T00:09:24.793Z,40.3
2017-06-11T00:10:25.504Z,40.7
2017-06-11T00:11:26.296Z,40.2
2017-06-11T00:12:26.946Z,40.4
2017-06-11T00:13:27.841Z,40.6
2017-06-11T00:14:28.513Z,40.3
2017-06-11T00:15:29.460Z,40.5
2017-06-11T00:16:30.162Z,40.2
2017-06-11T00:18:46.535Z,40.8
2017-06-11T00:19:47.421Z,40.4
2017-06-11T00:20:48.232Z,40.4
2017-06-11T00:21:49.229Z,40.3
2017-06-11T00:22:50.075Z,40.6
2017-06-11T00:23:50.892Z,40.4
2017-06-11T00:24:51.628Z,40.9
2017-06-11T00:25:52.415Z,40.9
2017-06-11T00:26:53.187Z,40.7
2017-06-11T00:27:54.445Z,40.4
2017-06-11T00:28:55.141Z,40.3
2017-06-11T00:29:55.889Z,40.4
2017-06-11T00:30:56.638Z,40.4
2017-06-11T00:31:57.445Z,40.7
2017-06-11T00:32:58.136Z,40.6
2017-06-11T00:33:59.138Z,40.7
2017-06-11T00:34:59.815Z,40.7
2017-06-11T00:36:00.808Z,40.8
2017-06-11T00:37:01.500Z,40.7
2017-06-11T00:38:02.190Z,40.7
2017-06-11T00:39:03.111Z,40.9
2017-06-11T00:40:04.118Z,40.6
2017-06-11T00:41:05.857Z,40.7
2017-06-11T00:42:06.532Z,40.8
2017-06-11T00:43:07.283Z,40.7
2017-06-11T00:44:08.101Z,40.8
2017-06-11T00:45:08.842Z,41.0
2017-06-11T00:46:09.932Z,40.7
2017-06-11T00:47:10.819Z,40.8
2017-06-11T00:48:11.546Z,40.7
2017-06-11T00:49:12.234Z,40.7
2017-06-11T00:50:13.188Z,41.1
2017-06-11T00:51:14.185Z,40.9
2017-06-11T00:52:14.870Z,40.7
2017-06-11T00:53:15.867Z,41.0
2017-06-11T00:54:16.598Z,40.7
2017-06-11T00:55:17.310Z,40.6
2017-06-11T00:56:18.114Z,40.8
2017-06-11T00:57:18.843Z,40.9
2017-06-11T00:58:19.528Z,40.9
2017-06-11T00:59:20.774Z,41.0
2017-06-11T01:00:21.461Z,41.0
2017-06-11T01:01:22.211Z,40.7
2017-06-11T01:02:22.906Z,40.9
2017-06-11T01:04:40.174Z,41.0
2017-06-11T01:05:40.995Z,41.2
2017-06-11T01:06:41.769Z,41.3
2017-06-11T01:07:42.793Z,40.7
2017-06-11T01:08:43.589Z,41.0
2017-06-11T01:09:44.771Z,41.2
2017-06-11T01:10:45.771Z,41.8
2017-06-11T01:11:46.545Z,42.3
2017-06-11T01:12:47.240Z,42.0
2017-06-11T01:13:48.221Z,42.3
2017-06-11T01:14:49.003Z,41.9
2017-06-11T01:15:50.100Z,41.8
2017-06-11T01:16:51.214Z,41.4
2017-06-11T01:17:51.985Z,41.5
2017-06-11T01:18:52.801Z,41.8
2017-06-11T01:19:53.604Z,41.9
2017-06-11T01:20:54.843Z,41.7
2017-06-11T01:21:55.567Z,41.6
2017-06-11T01:22:56.760Z,41.5
2017-06-11T01:23:57.456Z,41.6
2017-06-11T01:24:58.149Z,41.5
2017-06-11T01:25:58.874Z,42.1
2017-06-11T01:26:59.629Z,41.4
2017-06-11T01:28:00.325Z,41.4
2017-06-11T01:29:01.074Z,41.4
2017-06-11T01:30:02.115Z,41.3
2017-06-11T01:31:02.850Z,41.5
2017-06-11T01:32:03.604Z,41.4
2017-06-11T01:33:04.318Z,41.7
2017-06-11T01:34:05.004Z,41.4
2017-06-11T01:35:05.818Z,41.4
2017-06-11T01:36:07.094Z,41.4
2017-06-11T01:37:07.844Z,41.4
2017-06-11T01:38:08.860Z,41.4
2017-06-11T01:39:09.678Z,41.7
2017-06-11T01:40:10.402Z,41.4
2017-06-11T01:41:11.227Z,41.4
2017-06-11T01:42:12.501Z,41.4
2017-06-11T01:43:13.556Z,41.3
2017-06-11T01:44:14.247Z,41.4
2017-06-11T01:45:15.347Z,41.4
2017-06-11T01:46:16.015Z,41.9
2017-06-11T01:47:17.077Z,41.5
2017-06-11T01:48:18.162Z,41.3
2017-06-11T01:49:18.919Z,41.3
2017-06-11T01:50:19.704Z,41.3
2017-06-11T01:51:20.414Z,42.1
2017-06-11T01:52:21.169Z,41.2
2017-06-11T01:53:22.417Z,41.4
2017-06-11T01:54:23.456Z,41.4
2017-06-11T01:55:24.146Z,41.2
2017-06-11T01:56:24.829Z,42.1
2017-06-11T01:57:25.533Z,41.3
2017-06-11T01:58:26.383Z,41.2
2017-06-11T01:59:27.054Z,41.3
2017-06-11T02:00:28.005Z,41.2
2017-06-11T02:01:28.734Z,42.0
2017-06-11T02:02:29.430Z,41.4
2017-06-11T02:03:30.119Z,42.0
2017-06-11T02:04:31.093Z,42.0
2017-06-11T02:05:32.011Z,41.3
2017-06-11T02:06:33.116Z,41.4
2017-06-11T02:07:34.158Z,41.4
2017-06-11T02:08:35.544Z,41.6
2017-06-11T02:09:36.216Z,41.4
2017-06-11T02:10:36.902Z,41.5
2017-06-11T02:11:37.777Z,41.9
2017-06-11T02:12:38.868Z,41.5
2017-06-11T02:13:40.005Z,41.4
2017-06-11T02:14:40.690Z,41.9
2017-06-11T02:15:41.451Z,42.0
2017-06-11T02:16:42.325Z,41.7
2017-06-11T02:17:43.120Z,42.0
2017-06-11T02:18:44.072Z,41.8
2017-06-11T02:19:44.858Z,41.8
2017-06-11T02:20:45.581Z,42.1
2017-06-11T02:21:46.448Z,42.1
2017-06-11T02:22:47.133Z,42.1
2017-06-11T02:23:47.833Z,42.1
2017-06-11T02:24:48.562Z,42.1
2017-06-11T02:25:49.551Z,42.2
2017-06-11T02:26:50.251Z,42.1
2017-06-11T02:27:50.934Z,42.3
2017-06-11T02:28:51.639Z,42.0
2017-06-11T02:29:52.354Z,42.1
2017-06-11T02:30:53.054Z,42.4
2017-06-11T02:31:54.024Z,42.1
2017-06-11T02:32:54.764Z,42.1
2017-06-11T02:33:55.453Z,42.0
2017-06-11T02:34:56.137Z,42.1
2017-06-11T02:35:56.818Z,42.7
2017-06-11T02:36:57.689Z,42.6
2017-06-11T02:39:14.144Z,42.0
2017-06-11T02:40:15.409Z,41.9
2017-06-11T02:41:16.119Z,42.8
2017-06-11T02:42:17.359Z,42.3
2017-06-11T02:43:18.012Z,42.3
2017-06-11T02:44:18.956Z,43.0
2017-06-11T02:45:19.666Z,42.8
2017-06-11T02:46:20.354Z,42.2
2017-06-11T02:47:21.068Z,42.0
2017-06-11T02:48:21.818Z,42.3
2017-06-11T02:49:22.471Z,42.3
2017-06-11T02:50:23.526Z,42.9
2017-06-11T02:51:24.278Z,42.2
2017-06-11T02:52:25.693Z,42.3
2017-06-11T02:53:26.381Z,42.2
2017-06-11T02:54:27.079Z,42.3
2017-06-11T02:55:27.774Z,42.1
2017-06-11T02:56:28.757Z,42.8
2017-06-11T02:57:29.692Z,42.0
2017-06-11T02:58:30.391Z,42.0
2017-06-11T02:59:31.125Z,42.9
2017-06-11T03:00:31.818Z,42.1
2017-06-11T03:01:32.500Z,42.6
2017-06-11T03:02:33.192Z,42.8
2017-06-11T03:03:34.134Z,42.5
2017-06-11T03:04:34.830Z,42.4
2017-06-11T03:05:35.564Z,42.8
2017-06-11T03:06:36.254Z,42.5
2017-06-11T03:07:37.112Z,42.7
2017-06-11T03:08:38.282Z,42.4
2017-06-11T03:09:39.426Z,42.6
2017-06-11T03:10:40.280Z,42.6
2017-06-11T03:11:41.170Z,42.4
2017-06-11T03:12:41.923Z,42.6
2017-06-11T03:13:42.670Z,42.5
2017-06-11T03:14:43.564Z,42.4
2017-06-11T03:15:44.591Z,42.4
2017-06-11T03:16:45.302Z,42.5
2017-06-11T03:17:46.241Z,42.5
2017-06-11T03:18:46.981Z,42.6
2017-06-11T03:19:47.771Z,42.1
2017-06-11T03:20:48.454Z,42.7
2017-06-11T03:21:49.697Z,42.6
2017-06-11T03:22:50.386Z,42.5
2017-06-11T03:23:51.133Z,42.8
2017-06-11T03:24:52.015Z,42.5
2017-06-11T03:25:52.717Z,42.4
2017-06-11T03:26:53.711Z,42.3
2017-06-11T03:27:54.744Z,42.5
2017-06-11T03:28:55.662Z,42.4
2017-06-11T03:29:56.469Z,42.4
2017-06-11T03:30:57.176Z,42.7
2017-06-11T03:31:57.874Z,42.6
2017-06-11T03:32:58.602Z,42.5
2017-06-11T03:33:59.639Z,42.1
2017-06-11T03:35:00.484Z,42.0
2017-06-11T03:36:01.228Z,42.2
2017-06-11T03:37:02.121Z,42.6
2017-06-11T03:38:02.827Z,42.6
2017-06-11T03:39:03.509Z,41.9
2017-06-11T03:40:04.505Z,42.0
2017-06-11T03:41:05.267Z,42.2
2017-06-11T03:42:05.920Z,42.1
2017-06-11T03:43:06.609Z,42.3
2017-06-11T03:44:07.352Z,42.3
2017-06-11T03:45:08.102Z,42.2
2017-06-11T03:46:08.838Z,42.1
2017-06-11T03:47:09.872Z,42.2
2017-06-11T03:48:11.298Z,42.7
2017-06-11T03:49:11.966Z,42.3
2017-06-11T03:50:12.764Z,43.0
2017-06-11T03:51:13.519Z,42.2
2017-06-11T03:52:14.554Z,42.3
2017-06-11T03:53:15.523Z,42.9
2017-06-11T03:54:16.220Z,42.6
2017-06-11T03:55:16.933Z,42.2
2017-06-11T03:56:17.614Z,43.0
2017-06-11T03:57:18.425Z,42.2
2017-06-11T03:58:19.262Z,42.2
2017-06-11T03:59:19.947Z,42.8
2017-06-11T04:00:21.032Z,42.1
2017-06-11T04:01:21.731Z,41.9
2017-06-11T04:02:22.850Z,42.0
2017-06-11T04:03:23.573Z,42.0
2017-06-11T04:04:24.343Z,42.0
2017-06-11T04:05:25.045Z,42.1
2017-06-11T04:06:26.035Z,42.2
2017-06-11T04:07:26.928Z,42.2
2017-06-11T04:08:27.617Z,42.1
2017-06-11T04:09:28.368Z,42.3
2017-06-11T04:10:29.087Z,41.8
2017-06-11T04:11:29.814Z,41.7
2017-06-11T04:12:30.985Z,42.1
2017-06-11T04:13:31.707Z,41.9
2017-06-11T04:14:32.390Z,42.1
2017-06-11T04:15:33.175Z,42.3
2017-06-11T04:16:33.978Z,41.9
2017-06-11T04:17:34.662Z,41.6
2017-06-11T04:18:35.870Z,41.6
2017-06-11T04:19:36.668Z,41.7
2017-06-11T04:20:37.345Z,42.0
2017-06-11T04:21:38.038Z,41.8
2017-06-11T04:22:38.794Z,41.8
2017-06-11T04:23:39.533Z,41.7
2017-06-11T04:24:40.476Z,41.7
2017-06-11T04:25:41.165Z,41.7
2017-06-11T04:26:41.862Z,41.8
2017-06-11T04:27:42.549Z,42.4
2017-06-11T04:28:43.284Z,41.7
2017-06-11T04:29:43.980Z,42.1
2017-06-11T04:30:45.022Z,41.7
2017-06-11T04:31:45.813Z,41.9
2017-06-11T04:32:46.699Z,41.9
2017-06-11T04:33:47.565Z,41.7
2017-06-11T04:34:48.282Z,42.3
2017-06-11T04:35:49.018Z,42.1
2017-06-11T04:36:50.014Z,42.4
2017-06-11T04:37:50.734Z,41.9
2017-06-11T04:38:51.525Z,41.8
2017-06-11T04:39:52.281Z,42.0
2017-06-11T04:40:53.083Z,41.9
2017-06-11T04:41:53.760Z,41.9
2017-06-11T04:42:54.909Z,42.7
2017-06-11T04:43:55.590Z,42.3
2017-06-11T04:44:56.268Z,42.0
2017-06-11T04:45:56.970Z,42.2
2017-06-11T04:46:57.668Z,42.1
2017-06-11T04:47:58.396Z,42.1
2017-06-11T04:48:59.433Z,42.1
2017-06-11T04:50:00.102Z,42.1
2017-06-11T04:51:00.789Z,42.7
2017-06-11T04:52:01.481Z,42.4
2017-06-11T04:53:02.187Z,42.6
2017-06-11T04:54:02.973Z,43.0
2017-06-11T04:55:04.024Z,42.7
2017-06-11T04:56:04.693Z,42.6
2017-06-11T04:57:05.834Z,43.0
2017-06-11T04:58:06.516Z,43.0
2017-06-11T04:59:07.368Z,43.0
2017-06-11T05:00:08.058Z,43.0
2017-06-11T05:01:09.015Z,43.0
2017-06-11T05:02:09.717Z,43.5
2017-06-11T05:03:10.446Z,43.1
2017-06-11T05:04:11.186Z,43.3
2017-06-11T05:05:11.943Z,43.2
2017-06-11T05:06:12.728Z,43.1
2017-06-11T05:07:14.202Z,43.1
2017-06-11T05:08:15.035Z,43.2
2017-06-11T05:09:15.712Z,43.2
2017-06-11T05:10:16.460Z,43.4
2017-06-11T05:11:17.184Z,43.3
2017-06-11T05:12:17.899Z,43.2
2017-06-11T05:13:18.937Z,43.2
2017-06-11T05:14:19.624Z,43.3
2017-06-11T05:15:20.368Z,43.4
2017-06-11T05:16:21.151Z,43.3
2017-06-11T05:17:21.942Z,43.9
2017-06-11T05:18:22.613Z,43.9
2017-06-11T05:19:23.617Z,43.6
2017-06-11T05:20:24.304Z,43.7
2017-06-11T05:21:25.159Z,43.6
2017-06-11T05:22:26.381Z,43.6
2017-06-11T05:23:27.383Z,43.6
2017-06-11T05:24:28.110Z,43.8
2017-06-11T05:25:29.133Z,43.9
2017-06-11T05:26:30.416Z,43.5
2017-06-11T05:27:31.166Z,43.5
2017-06-11T05:28:31.882Z,43.6
2017-06-11T05:29:32.630Z,43.6
2017-06-11T05:30:33.374Z,43.7
2017-06-11T05:31:34.686Z,43.7
2017-06-11T05:32:35.429Z,43.6
2017-06-11T05:33:36.176Z,43.4
2017-06-11T05:34:36.881Z,43.6
2017-06-11T05:35:37.636Z,43.3
2017-06-11T05:36:38.477Z,43.2
2017-06-11T05:37:39.379Z,43.2
2017-06-11T05:38:40.150Z,43.3
2017-06-11T05:39:40.809Z,43.3
2017-06-11T05:40:41.511Z,43.9
2017-06-11T05:41:42.294Z,43.5
2017-06-11T05:42:42.986Z,43.3
2017-06-11T05:43:43.925Z,43.5
2017-06-11T05:44:44.617Z,43.3
2017-06-11T05:45:45.311Z,43.4
2017-06-11T05:46:46.115Z,43.3
2017-06-11T05:47:47.157Z,43.9
2017-06-11T05:48:47.863Z,43.4
2017-06-11T05:49:49.188Z,43.2
2017-06-11T05:50:49.875Z,43.2
2017-06-11T05:51:50.754Z,43.4
2017-06-11T05:52:51.540Z,43.1
2017-06-11T05:53:52.591Z,43.6
2017-06-11T05:54:53.325Z,43.1
2017-06-11T05:55:54.321Z,43.3
2017-06-11T05:56:55.151Z,43.4
2017-06-11T05:57:55.825Z,43.2
2017-06-11T05:58:56.631Z,43.1
2017-06-11T05:59:57.367Z,43.2
2017-06-11T06:00:58.139Z,43.1
2017-06-11T06:01:59.196Z,43.0
2017-06-11T06:02:59.884Z,43.2
2017-06-11T06:04:00.600Z,43.3
2017-06-11T06:05:01.346Z,43.4
2017-06-11T06:06:02.033Z,43.4
2017-06-11T06:07:02.744Z,43.2
2017-06-11T06:08:03.817Z,43.2
2017-06-11T06:09:04.612Z,43.6
2017-06-11T06:10:05.283Z,43.3
2017-06-11T06:11:05.982Z,43.5
2017-06-11T06:12:06.665Z,43.3
2017-06-11T06:13:07.614Z,43.1
2017-06-11T06:14:08.348Z,42.7
2017-06-11T06:15:09.312Z,43.1
2017-06-11T06:16:09.981Z,42.9
2017-06-11T06:17:10.686Z,42.5
2017-06-11T06:18:11.418Z,42.8
2017-06-11T06:19:12.118Z,42.7
2017-06-11T06:20:12.870Z,42.9
2017-06-11T06:21:13.881Z,42.6
2017-06-11T06:22:14.555Z,42.2
2017-06-11T06:23:15.648Z,42.2
2017-06-11T06:24:16.417Z,42.3
2017-06-11T06:25:17.529Z,42.0
2017-06-11T06:26:18.881Z,42.1
2017-06-11T06:27:20.131Z,42.6
2017-06-11T06:28:21.663Z,42.1
2017-06-11T06:29:22.703Z,42.0
2017-06-11T06:30:23.430Z,42.0
2017-06-11T06:31:24.271Z,42.3
2017-06-11T06:32:25.021Z,42.3
2017-06-11T06:33:26.088Z,42.0
2017-06-11T06:34:26.860Z,42.6
2017-06-11T06:35:27.599Z,42.0
2017-06-11T06:36:28.349Z,41.9
2017-06-11T06:37:29.122Z,42.2
2017-06-11T06:38:29.949Z,41.8
2017-06-11T06:39:30.936Z,42.1
2017-06-11T06:40:31.635Z,41.9
2017-06-11T06:41:32.332Z,42.2
2017-06-11T06:42:33.013Z,41.4
2017-06-11T06:43:33.709Z,41.4
2017-06-11T06:44:34.423Z,41.4
2017-06-11T06:45:35.415Z,41.4
2017-06-11T06:46:36.144Z,41.4
2017-06-11T06:47:36.858Z,41.4
2017-06-11T06:48:37.586Z,41.4
2017-06-11T06:49:38.326Z,41.4
2017-06-11T06:50:39.035Z,41.4
2017-06-11T06:51:40.022Z,41.9
2017-06-11T06:52:40.707Z,41.8
2017-06-11T06:53:41.457Z,41.4
2017-06-11T06:54:42.175Z,41.4
2017-06-11T06:55:42.907Z,41.4
2017-06-11T06:56:43.679Z,41.5
2017-06-11T06:57:44.718Z,41.4
2017-06-11T06:58:45.459Z,41.5
2017-06-11T06:59:46.156Z,41.4
2017-06-11T07:00:46.900Z,41.4
2017-06-11T07:01:47.647Z,41.4
2017-06-11T07:02:48.345Z,42.4
2017-06-11T07:03:49.402Z,41.5
2017-06-11T07:04:50.080Z,41.8
2017-06-11T07:05:50.782Z,42.0
2017-06-11T07:06:51.460Z,41.3
2017-06-11T07:07:52.220Z,41.4
2017-06-11T07:08:52.899Z,41.3
2017-06-11T07:09:53.909Z,41.0
2017-06-11T07:10:54.608Z,41.2
2017-06-11T07:11:55.341Z,41.0
2017-06-11T07:12:56.035Z,40.9
2017-06-11T07:13:56.741Z,41.0
2017-06-11T07:14:57.413Z,41.0
2017-06-11T07:15:59.290Z,41.2
2017-06-11T07:16:59.951Z,41.0
2017-06-11T07:18:00.646Z,41.5
2017-06-11T07:19:01.350Z,41.2
2017-06-11T07:20:02.044Z,41.1
2017-06-11T07:21:02.718Z,41.5
2017-06-11T07:22:03.715Z,41.3
2017-06-11T07:23:04.507Z,41.3
2017-06-11T07:24:05.199Z,41.8
2017-06-11T07:25:05.899Z,41.4
2017-06-11T07:26:06.587Z,41.1
2017-06-11T07:27:07.289Z,41.6
2017-06-11T07:28:08.275Z,41.3
2017-06-11T07:29:08.973Z,41.3
2017-06-11T07:30:09.728Z,41.4
2017-06-11T07:31:10.472Z,41.7
2017-06-11T07:32:11.162Z,41.3
2017-06-11T07:33:11.910Z,41.4
2017-06-11T07:34:12.933Z,41.3
2017-06-11T07:35:13.638Z,41.4
2017-06-11T07:36:14.380Z,41.3
2017-06-11T07:37:15.071Z,41.7
2017-06-11T07:38:16.063Z,41.4
2017-06-11T07:39:16.763Z,41.8
2017-06-11T07:40:17.624Z,41.6
2017-06-11T07:41:18.599Z,41.5
2017-06-11T07:42:19.348Z,41.5
2017-06-11T07:43:20.041Z,41.5
2017-06-11T07:44:20.735Z,41.5
2017-06-11T07:45:21.478Z,41.9
2017-06-11T07:46:22.176Z,41.3
2017-06-11T07:47:23.159Z,41.5
2017-06-11T07:48:23.868Z,41.6
2017-06-11T07:49:24.628Z,41.5
2017-06-11T07:50:25.340Z,41.8
2017-06-11T07:51:26.039Z,41.5
2017-06-11T07:52:26.772Z,41.5
2017-06-11T07:53:27.715Z,41.3
2017-06-11T07:54:28.435Z,41.5
2017-06-11T07:55:29.118Z,41.5
2017-06-11T07:56:29.798Z,41.6
2017-06-11T07:57:30.489Z,41.9
2017-06-11T07:58:31.242Z,41.8
2017-06-11T07:59:32.246Z,41.9
2017-06-11T08:00:32.952Z,41.6
2017-06-11T08:01:33.672Z,41.5
2017-06-11T08:02:34.362Z,41.5
2017-06-11T08:03:35.059Z,41.5
2017-06-11T08:04:35.865Z,41.5
2017-06-11T08:05:36.842Z,41.5
2017-06-11T08:06:37.585Z,41.4
2017-06-11T08:07:38.277Z,41.5
2017-06-11T08:08:38.974Z,41.4
2017-06-11T08:09:39.669Z,41.5
2017-06-11T08:10:40.352Z,41.5
2017-06-11T08:11:41.069Z,42.0
2017-06-11T08:12:42.006Z,41.5
2017-06-11T08:13:42.691Z,41.5
2017-06-11T08:14:43.500Z,41.5
2017-06-11T08:15:44.198Z,41.9
2017-06-11T08:16:44.894Z,41.4
2017-06-11T08:17:45.586Z,41.6
2017-06-11T08:18:46.552Z,41.7
2017-06-11T08:19:47.347Z,41.8
2017-06-11T08:20:48.104Z,41.5
2017-06-11T08:21:48.841Z,41.7
2017-06-11T08:22:49.546Z,41.6
2017-06-11T08:23:50.275Z,41.5
2017-06-11T08:24:51.280Z,41.4
2017-06-11T08:25:51.969Z,41.4
2017-06-11T08:26:52.660Z,41.4
2017-06-11T08:27:53.351Z,41.1
2017-06-11T08:28:54.095Z,41.6
2017-06-11T08:29:54.779Z,41.4
2017-06-11T08:30:55.811Z,41.6
2017-06-11T08:31:56.525Z,41.7
2017-06-11T08:32:57.220Z,41.0
2017-06-11T08:33:58.016Z,41.4
2017-06-11T08:34:58.706Z,41.4
2017-06-11T08:35:59.427Z,41.0
2017-06-11T08:37:00.427Z,41.2
2017-06-11T08:38:01.106Z,41.4
2017-06-11T08:39:01.894Z,41.5
2017-06-11T08:40:02.598Z,41.2
2017-06-11T08:41:03.277Z,40.9
2017-06-11T08:42:03.968Z,41.6
2017-06-11T08:43:04.917Z,41.4
2017-06-11T08:44:05.748Z,41.6
2017-06-11T08:45:06.403Z,41.5
2017-06-11T08:46:07.110Z,41.4
2017-06-11T08:47:07.851Z,41.4
2017-06-11T08:48:08.547Z,41.1
2017-06-11T08:49:09.655Z,41.3
2017-06-11T08:50:10.392Z,41.3
2017-06-11T08:51:11.080Z,41.1
2017-06-11T08:52:11.770Z,41.1
2017-06-11T08:53:12.463Z,41.2
2017-06-11T08:54:13.158Z,40.9
2017-06-11T08:55:13.903Z,41.2
2017-06-11T08:56:14.650Z,41.3
2017-06-11T08:57:15.336Z,41.1
2017-06-11T08:58:16.055Z,41.5
2017-06-11T08:59:16.725Z,41.6
2017-06-11T09:00:17.723Z,41.2
2017-06-11T09:01:18.474Z,41.4
2017-06-11T09:02:19.302Z,41.1
2017-06-11T09:03:19.970Z,41.3
2017-06-11T09:04:20.663Z,41.8
2017-06-11T09:05:21.354Z,41.5
2017-06-11T09:06:22.348Z,41.8
2017-06-11T09:07:23.029Z,41.6
2017-06-11T09:08:23.821Z,41.8
2017-06-11T09:09:24.534Z,41.6
2017-06-11T09:10:25.264Z,41.5
2017-06-11T09:11:25.983Z,41.6
2017-06-11T09:12:26.749Z,41.6
2017-06-11T09:13:27.790Z,41.8
2017-06-11T09:14:28.498Z,41.5
2017-06-11T09:15:29.176Z,41.6
2017-06-11T09:16:29.891Z,41.6
2017-06-11T09:17:30.626Z,41.6
2017-06-11T09:18:32.850Z,41.5
2017-06-11T09:19:33.553Z,41.5
2017-06-11T09:20:34.247Z,41.4
2017-06-11T09:21:34.990Z,41.5
2017-06-11T09:22:35.718Z,41.9
2017-06-11T09:23:36.628Z,41.8
2017-06-11T09:24:37.337Z,41.9
2017-06-11T09:25:38.040Z,41.5
2017-06-11T09:26:38.972Z,41.9
2017-06-11T09:27:39.705Z,41.6
2017-06-11T09:28:40.460Z,41.5
2017-06-11T09:29:41.202Z,41.9
2017-06-11T09:30:41.895Z,41.8
2017-06-11T09:31:42.761Z,41.8
2017-06-11T09:32:43.691Z,41.2
2017-06-11T09:33:44.449Z,41.6
2017-06-11T09:34:45.130Z,41.6
2017-06-11T09:35:45.881Z,42.1
2017-06-11T09:36:46.579Z,41.6
2017-06-11T09:37:47.262Z,41.5
2017-06-11T09:38:48.264Z,41.6
2017-06-11T09:39:49.007Z,41.5
2017-06-11T09:40:49.728Z,42.1
2017-06-11T09:41:50.494Z,41.6
2017-06-11T09:42:51.204Z,41.7
2017-06-11T09:43:51.934Z,42.2
2017-06-11T09:44:52.926Z,42.5
2017-06-11T09:45:53.625Z,42.3
2017-06-11T09:46:54.408Z,42.2
2017-06-11T09:47:55.104Z,41.5
2017-06-11T09:48:55.991Z,42.4
2017-06-11T09:49:56.698Z,41.6
2017-06-11T09:50:57.387Z,41.6
2017-06-11T09:51:58.085Z,41.7
2017-06-11T09:52:58.780Z,42.3
2017-06-11T09:53:59.525Z,42.1
2017-06-11T09:55:00.205Z,41.7
2017-06-11T09:56:00.890Z,41.8
2017-06-11T09:57:01.863Z,41.5
2017-06-11T09:58:02.584Z,41.6
2017-06-11T09:59:03.341Z,42.4
2017-06-11T10:00:04.224Z,42.3
2017-06-11T10:01:04.921Z,42.3
2017-06-11T10:02:05.622Z,42.3
2017-06-11T10:03:06.619Z,41.9
2017-06-11T10:04:07.324Z,41.8
2017-06-11T10:05:08.086Z,42.0
2017-06-11T10:06:08.782Z,42.2
2017-06-11T10:07:09.521Z,42.1
2017-06-11T10:08:10.219Z,41.8
2017-06-11T10:09:11.219Z,42.4
2017-06-11T10:10:11.916Z,42.2
2017-06-11T10:11:12.605Z,42.4
2017-06-11T10:12:13.294Z,41.8
2017-06-11T10:13:14.038Z,41.6
2017-06-11T10:14:14.829Z,42.3
2017-06-11T10:15:15.783Z,42.1
2017-06-11T10:16:16.784Z,41.7
2017-06-11T10:17:17.719Z,41.4
2017-06-11T10:18:18.421Z,41.7
2017-06-11T10:19:19.411Z,42.0
2017-06-11T10:20:20.106Z,41.6
2017-06-11T10:21:21.346Z,41.9
2017-06-11T10:22:22.074Z,41.7
2017-06-11T10:23:22.824Z,41.5
2017-06-11T10:24:23.532Z,41.8
2017-06-11T10:25:24.219Z,41.5
2017-06-11T10:26:24.956Z,42.0
2017-06-11T10:27:25.984Z,41.6
2017-06-11T10:28:26.697Z,41.8
2017-06-11T10:29:27.404Z,42.1
2017-06-11T10:30:28.554Z,42.1
2017-06-11T10:31:29.221Z,41.6
2017-06-11T10:32:30.169Z,41.6
2017-06-11T10:33:31.158Z,41.5
2017-06-11T10:34:31.860Z,41.3
2017-06-11T10:35:32.538Z,41.5
2017-06-11T10:36:33.234Z,41.3
2017-06-11T10:37:34.235Z,41.4
2017-06-11T10:38:34.962Z,41.4
2017-06-11T10:39:36.240Z,41.6
2017-06-11T10:40:36.938Z,41.5
2017-06-11T10:41:37.670Z,41.3
2017-06-11T10:42:38.576Z,41.5
2017-06-11T10:43:39.296Z,41.4
2017-06-11T10:44:40.011Z,41.3
2017-06-11T10:45:41.070Z,41.5
2017-06-11T10:46:41.769Z,41.4
2017-06-11T10:47:42.787Z,41.5
2017-06-11T10:48:43.565Z,42.0
2017-06-11T10:49:44.258Z,41.6
2017-06-11T10:50:44.951Z,41.6
2017-06-11T10:51:45.705Z,41.9
2017-06-11T10:52:46.766Z,41.9
2017-06-11T10:53:47.516Z,41.6
2017-06-11T10:54:48.245Z,41.6
2017-06-11T10:55:48.924Z,41.5
2017-06-11T10:56:49.677Z,41.6
2017-06-11T10:57:50.371Z,41.7
2017-06-11T10:58:51.305Z,41.9
2017-06-11T10:59:52.196Z,41.6
2017-06-11T11:00:52.896Z,41.9
2017-06-11T11:01:53.589Z,42.1
2017-06-11T11:02:54.288Z,41.6
2017-06-11T11:03:55.007Z,41.5
2017-06-11T11:04:56.086Z,41.9
2017-06-11T11:05:56.793Z,41.6
2017-06-11T11:07:00.221Z,41.8
2017-06-11T11:08:00.892Z,41.6
2017-06-11T11:09:01.585Z,41.6
2017-06-11T11:10:02.394Z,41.6
2017-06-11T11:11:03.876Z,41.2
2017-06-11T11:12:04.624Z,41.6
2017-06-11T11:13:05.309Z,41.6
2017-06-11T11:14:06.026Z,41.6
2017-06-11T11:15:06.736Z,41.6
2017-06-11T11:16:07.400Z,41.5
2017-06-11T11:17:08.097Z,41.7
2017-06-11T11:18:08.958Z,41.7
2017-06-11T11:19:09.636Z,41.4
2017-06-11T11:20:10.660Z,41.3
2017-06-11T11:21:11.342Z,41.2
2017-06-11T11:22:12.041Z,41.4
2017-06-11T11:23:12.982Z,41.6
2017-06-11T11:24:13.681Z,41.1
2017-06-11T11:25:14.482Z,40.9
2017-06-11T11:26:15.181Z,41.1
2017-06-11T11:27:15.925Z,41.0
2017-06-11T11:28:16.637Z,41.3
2017-06-11T11:29:17.596Z,40.8
2017-06-11T11:30:18.362Z,40.8
2017-06-11T11:31:19.078Z,41.0
2017-06-11T11:32:19.773Z,40.7
2017-06-11T11:33:20.475Z,41.1
2017-06-11T11:34:21.166Z,41.0
2017-06-11T11:35:22.257Z,41.1
2017-06-11T11:36:22.958Z,41.1
2017-06-11T11:37:23.691Z,40.8
2017-06-11T11:38:24.384Z,40.9
2017-06-11T11:39:25.067Z,40.5
2017-06-11T11:40:25.855Z,40.7
2017-06-11T11:41:26.802Z,40.8
2017-06-11T11:42:27.503Z,41.0
2017-06-11T11:43:28.219Z,40.8
2017-06-11T11:44:28.950Z,40.8
2017-06-11T11:45:29.884Z,40.7
2017-06-11T11:46:30.584Z,40.7
2017-06-11T11:47:31.336Z,40.7
2017-06-11T11:48:32.622Z,40.6
2017-06-11T11:49:33.317Z,40.5
2017-06-11T11:50:34.011Z,40.8
2017-06-11T11:51:34.795Z,40.3
2017-06-11T11:52:35.480Z,40.9
2017-06-11T11:53:36.184Z,40.5
2017-06-11T11:54:37.179Z,40.5
2017-06-11T11:55:37.966Z,40.4
2017-06-11T11:56:38.665Z,40.3
2017-06-11T11:57:39.369Z,40.1
2017-06-11T11:58:40.057Z,40.7
2017-06-11T11:59:40.750Z,40.4
2017-06-11T12:00:41.758Z,40.5
2017-06-11T12:01:42.517Z,40.4
2017-06-11T12:02:43.206Z,40.5
2017-06-11T12:03:43.874Z,40.7
2017-06-11T12:04:44.563Z,40.3
2017-06-11T12:05:45.395Z,40.6
2017-06-11T12:06:46.363Z,40.4
2017-06-11T12:07:47.070Z,40.3
2017-06-11T12:08:47.769Z,40.3
2017-06-11T12:09:48.490Z,40.0
2017-06-11T12:10:49.208Z,40.4
2017-06-11T12:11:49.975Z,40.2
2017-06-11T12:12:51.082Z,39.9
2017-06-11T12:13:51.762Z,40.0
2017-06-11T12:14:52.585Z,40.2
2017-06-11T12:15:53.294Z,39.8
2017-06-11T12:16:53.993Z,39.9
2017-06-11T12:17:54.731Z,39.9
2017-06-11T12:18:55.767Z,39.6
2017-06-11T12:19:56.466Z,39.8
2017-06-11T12:20:57.161Z,39.5
2017-06-11T12:21:58.009Z,39.5
2017-06-11T12:22:58.737Z,39.7
2017-06-11T12:23:59.528Z,39.5
2017-06-11T12:25:00.464Z,39.4
2017-06-11T12:26:01.142Z,39.0
2017-06-11T12:27:01.899Z,39.0
2017-06-11T12:28:02.723Z,38.8
2017-06-11T12:29:03.394Z,38.9
2017-06-11T12:30:04.170Z,38.5
2017-06-11T12:31:05.225Z,38.7
2017-06-11T12:32:05.929Z,38.3
2017-06-11T12:33:06.830Z,38.4
2017-06-11T12:34:07.519Z,38.5
2017-06-11T12:35:08.214Z,39.1
2017-06-11T12:36:08.938Z,38.7
2017-06-11T12:37:09.905Z,38.7
2017-06-11T12:38:10.795Z,38.4
2017-06-11T12:39:11.505Z,38.3
2017-06-11T12:40:12.250Z,38.3
2017-06-11T12:41:12.957Z,38.3
2017-06-11T12:42:13.650Z,38.4
2017-06-11T12:43:14.705Z,38.0
2017-06-11T12:44:15.691Z,38.1
2017-06-11T12:45:16.382Z,38.1
2017-06-11T12:46:17.085Z,37.9
2017-06-11T12:47:17.842Z,38.1
2017-06-11T12:48:18.585Z,37.8
2017-06-11T12:49:19.268Z,37.6
2017-06-11T12:50:20.038Z,37.3
2017-06-11T12:51:20.724Z,37.3
2017-06-11T12:52:21.428Z,36.8
2017-06-11T12:53:22.156Z,36.9
2017-06-11T12:54:22.821Z,36.8
2017-06-11T12:55:23.770Z,36.7
2017-06-11T12:56:24.514Z,36.6
2017-06-11T12:57:25.215Z,36.7
2017-06-11T12:58:25.961Z,36.5
2017-06-11T12:59:26.677Z,36.4
2017-06-11T13:00:27.365Z,36.2
2017-06-11T13:01:28.071Z,36.4
2017-06-11T13:02:29.010Z,36.3
2017-06-11T13:03:29.820Z,36.2
2017-06-11T13:04:30.560Z,36.4
2017-06-11T13:05:31.256Z,36.1
2017-06-11T13:06:31.965Z,36.3
2017-06-11T13:07:32.659Z,36.7
2017-06-11T13:08:33.451Z,36.3
2017-06-11T13:09:34.154Z,36.5
2017-06-11T13:10:34.876Z,36.1
2017-06-11T13:11:35.613Z,36.1
2017-06-11T13:12:36.323Z,35.8
2017-06-11T13:13:37.115Z,35.6
2017-06-11T13:14:38.109Z,35.2
2017-06-11T13:15:38.802Z,34.6
2017-06-11T13:16:39.500Z,34.0
2017-06-11T13:17:40.260Z,33.7
2017-06-11T13:18:41.380Z,34.3
2017-06-11T13:19:42.059Z,34.9
2017-06-11T13:20:43.139Z,34.9
2017-06-11T13:21:43.851Z,35.0
2017-06-11T13:22:44.548Z,34.7
2017-06-11T13:23:45.300Z,34.2
2017-06-11T13:24:46.018Z,34.4
2017-06-11T13:25:46.724Z,34.7
2017-06-11T13:26:47.678Z,34.9
2017-06-11T13:27:48.371Z,35.3
2017-06-11T13:28:49.166Z,35.7
2017-06-11T13:29:49.854Z,35.7
2017-06-11T13:30:50.579Z,36.0
2017-06-11T13:31:51.252Z,36.2
2017-06-11T13:32:51.954Z,36.5